Change the Weather History Date:

Sunday, October 6, 2013

  Actual Average Record
Temperature  
Mean Temperature 44 °F -  
Max Temperature 48 °F 67 °F 90 °F (1963)
Min Temperature 41 °F 44 °F 21 °F (1952)
Degree Days  
Heating Degree Days 20    
Moisture  
Dew Point 42 °F    
Average Humidity 90    
Maximum Humidity 100    
Minimum Humidity 66    
Precipitation  
Precipitation 0.05 in - - ()
Sea Level Pressure  
Sea Level Pressure 29.82 in    
Wind  
Wind Speed 13 mph (WNW)    
Max Wind Speed 23 mph    
Max Gust Speed 31 mph    
Visibility 8 miles    
Events Rain    
Averages and records for this station are not official NWS values.
T = Trace of Precipitation, MM = Missing Value Source: NWS Daily Summary

Daily Weather History Graph

Daily Weather History Graph

Search for Another Location

Airport or City:

Trip Planner

Search our weather history database for the weather conditions in past years. The results will help you decide how hot, cold, wet, or windy it might be!

Date:

Astronomy

Oct. 06, 2013 Rise Set
Actual Time 7:19 AM CDT 6:50 PM CDT
Civil Twilight 6:52 AM CDT 7:18 PM CDT
Nautical Twilight 6:20 AM CDT 7:49 PM CDT
Astronomical Twilight 5:48 AM CDT 8:21 PM CDT
Moon 9:05 AM CDT (10/6) 7:49 PM CDT (10/6)
Length of Visible Light 12h 26m
Length of Day
11h 31m
Waxing Crescent, 3% of the Moon is Illuminated
Oct 6
Waxing Crescent
Oct 11
First Quarter
Oct 18
Full
Oct 26
Last Quarter
Nov 3
New

Hourly Weather History & Observations

Time (CDT) Temp. Windchill Dew Point Humidity Pressure Visibility Wind Dir Wind Speed Gust Speed Precip Events Conditions
12:15 AM 44.6 °F 37.4 °F 33.8 °F 66% 29.80 in 10.0 mi SW 16.1 mph 24.2 mph N/A   Overcast
12:35 AM 44.6 °F 37.8 °F 33.8 °F 66% 29.80 in 10.0 mi WSW 15.0 mph - N/A   Overcast
12:55 AM 44.6 °F 38.4 °F 33.8 °F 66% 29.79 in 10.0 mi WSW 12.7 mph 19.6 mph N/A   Overcast
1:15 AM 44.6 °F 37.4 °F 33.8 °F 66% 29.79 in 10.0 mi WSW 16.1 mph - N/A   Overcast
1:35 AM 42.8 °F 36.2 °F 35.6 °F 76% 29.79 in 10.0 mi WSW 12.7 mph - N/A   Overcast
1:55 AM 42.8 °F 36.6 °F 35.6 °F 76% 29.78 in 10.0 mi WSW 11.5 mph 18.4 mph N/A   Overcast
2:15 AM 42.8 °F 37.0 °F 35.6 °F 76% 29.78 in 10.0 mi West 10.4 mph 19.6 mph N/A   Overcast
2:35 AM 42.8 °F 34.8 °F 35.6 °F 76% 29.78 in 10.0 mi WSW 17.3 mph - N/A   Overcast
2:55 AM 42.8 °F 34.8 °F 35.6 °F 76% 29.77 in 10.0 mi West 17.3 mph 24.2 mph N/A   Overcast
3:15 AM 42.8 °F 35.1 °F 37.4 °F 81% 29.77 in 10.0 mi West 16.1 mph 25.3 mph N/A   Overcast
3:35 AM 41.0 °F 34.3 °F 37.4 °F 87% 29.76 in 10.0 mi West 11.5 mph 17.3 mph N/A   Overcast
3:55 AM 41.0 °F 35.2 °F 37.4 °F 87% 29.76 in 10.0 mi WSW 9.2 mph 18.4 mph N/A   Overcast
4:15 AM 42.8 °F 38.0 °F 37.4 °F 81% 29.75 in 10.0 mi WSW 8.1 mph 16.1 mph N/A   Overcast
4:35 AM 42.8 °F 37.5 °F 37.4 °F 81% 29.75 in 10.0 mi West 9.2 mph 16.1 mph N/A   Overcast
4:55 AM 42.8 °F 38.6 °F 37.4 °F 81% 29.75 in 10.0 mi West 6.9 mph 15.0 mph N/A   Overcast
5:15 AM 42.8 °F 37.0 °F 37.4 °F 81% 29.76 in 10.0 mi WSW 10.4 mph - N/A   Overcast
5:35 AM 41.0 °F 33.9 °F 39.2 °F 93% 29.76 in - WSW 12.7 mph - N/A   Overcast
5:55 AM 41.0 °F 36.4 °F 39.2 °F 93% 29.77 in 3.0 mi West 6.9 mph - N/A   Light Drizzle
6:15 AM 41.0 °F 38.0 °F 39.2 °F 93% 29.77 in 1.5 mi West 4.6 mph - N/A   Light Drizzle
6:35 AM 41.0 °F - 41.0 °F 100% 29.77 in 2.5 mi Calm Calm - N/A   Light Drizzle
6:55 AM 41.0 °F 38.0 °F 41.0 °F 100% 29.78 in 1.5 mi NW 4.6 mph - 0.01 in   Light Drizzle
7:15 AM 41.0 °F 37.1 °F 41.0 °F 100% 29.78 in 9.0 mi WNW 5.8 mph - N/A   Overcast
7:35 AM 41.0 °F 35.2 °F 41.0 °F 100% 29.79 in 1.2 mi NNW 9.2 mph - N/A   Light Drizzle
7:55 AM 41.0 °F 34.7 °F 41.0 °F 100% 29.79 in 10.0 mi NW 10.4 mph - 0.01 in   Mostly Cloudy
8:15 AM 41.0 °F 35.2 °F 39.2 °F 93% 29.79 in 10.0 mi NW 9.2 mph - N/A   Overcast
8:35 AM 41.0 °F 33.9 °F 41.0 °F 100% 29.79 in 10.0 mi WNW 12.7 mph - N/A   Overcast
8:55 AM 42.8 °F 35.8 °F 39.2 °F 87% 29.80 in 10.0 mi WNW 13.8 mph - N/A   Overcast
9:15 AM 42.8 °F - 39.2 °F 87% 29.80 in 10.0 mi North - - N/A   Overcast
9:35 AM 42.8 °F 36.2 °F 41.0 °F 93% 29.80 in 9.0 mi WNW 12.7 mph 21.9 mph N/A   Overcast
9:55 AM 42.8 °F 35.4 °F 41.0 °F 93% 29.81 in 10.0 mi West 15.0 mph - N/A   Light Drizzle
10:15 AM 42.8 °F 36.2 °F 41.0 °F 93% 29.80 in 10.0 mi West 12.7 mph 19.6 mph N/A   Mostly Cloudy
10:35 AM 42.8 °F 35.8 °F 41.0 °F 93% 29.81 in 10.0 mi West 13.8 mph - N/A   Overcast
10:55 AM 42.8 °F 36.2 °F 41.0 °F 93% 29.82 in 10.0 mi WNW 12.7 mph 18.4 mph N/A   Overcast
11:15 AM 44.6 °F 39.2 °F 42.8 °F 93% 29.82 in 2.5 mi West 10.4 mph 18.4 mph N/A   Light Drizzle
11:35 AM 44.6 °F 38.1 °F 42.8 °F 93% 29.82 in 10.0 mi West 13.8 mph - N/A   Overcast
11:55 AM 44.6 °F 39.7 °F 42.8 °F 93% 29.82 in 2.5 mi West 9.2 mph 17.3 mph N/A   Light Drizzle
12:15 PM 44.6 °F 39.7 °F 44.6 °F 100% 29.82 in 3.0 mi West 9.2 mph - N/A   Overcast
12:35 PM 46.4 °F 41.1 °F 44.6 °F 93% 29.82 in 5.0 mi West 11.5 mph - N/A   Overcast
12:55 PM 46.4 °F 41.1 °F 44.6 °F 93% 29.82 in 1.8 mi West 11.5 mph - 0.01 in   Light Drizzle
1:15 PM 46.4 °F 41.1 °F 46.4 °F 100% 29.81 in 0.8 mi West 11.5 mph - N/A   Light Drizzle
1:35 PM 46.4 °F 40.4 °F 46.4 °F 100% 29.80 in 1.5 mi West 13.8 mph 20.7 mph N/A   Light Drizzle
1:55 PM 48.2 °F - 46.4 °F 93% 29.79 in 5.0 mi West 15.0 mph 21.9 mph 0.01 in   Light Drizzle
2:15 PM 48.2 °F - 46.4 °F 93% 29.79 in 4.0 mi West 19.6 mph 27.6 mph N/A   Overcast
2:35 PM 48.2 °F - 46.4 °F 93% 29.79 in - WNW 19.6 mph 31.1 mph N/A   Unknown
2:55 PM 48.2 °F - 46.4 °F 93% 29.79 in 9.0 mi WNW 20.7 mph 27.6 mph 0.01 in   Overcast
3:15 PM 48.2 °F - 46.4 °F 93% 29.79 in 7.0 mi WNW 20.7 mph 28.8 mph N/A   Light Drizzle
3:35 PM 48.2 °F - 46.4 °F 93% 29.80 in 2.0 mi WNW 20.7 mph 26.5 mph N/A Rain Light Rain
3:55 PM 48.2 °F - 46.4 °F 93% 29.81 in 3.0 mi WNW 20.7 mph 28.8 mph N/A   Light Drizzle
4:15 PM 48.2 °F - 46.4 °F 93% 29.81 in 4.0 mi WNW 19.6 mph 27.6 mph N/A   Light Drizzle
4:35 PM 48.2 °F - 46.4 °F 93% 29.82 in 3.0 mi WNW 23.0 mph 31.1 mph N/A Rain Light Rain
4:55 PM 48.2 °F - 46.4 °F 93% 29.83 in 8.0 mi WNW 17.3 mph 26.5 mph N/A   Mostly Cloudy
5:15 PM 48.2 °F - 46.4 °F 93% 29.84 in 5.0 mi WNW 18.4 mph 25.3 mph N/A   Light Drizzle
5:35 PM 48.2 °F - 46.4 °F 93% 29.84 in 9.0 mi WNW 17.3 mph 24.2 mph N/A   Overcast
5:55 PM 48.2 °F - 46.4 °F 93% 29.85 in 9.0 mi WNW 16.1 mph 26.5 mph N/A   Overcast
6:15 PM 48.2 °F - 46.4 °F 93% 29.86 in 3.0 mi WNW 16.1 mph 26.5 mph N/A   Light Drizzle
6:35 PM 48.2 °F - 46.4 °F 93% 29.87 in 9.0 mi WNW 18.4 mph - N/A   Overcast
6:55 PM 48.2 °F - 46.4 °F 93% 29.88 in 6.0 mi WNW 17.3 mph 24.2 mph N/A   Overcast
7:15 PM 46.4 °F 39.2 °F 46.4 °F 100% 29.89 in 3.0 mi WNW 18.4 mph 26.5 mph N/A   Light Drizzle
7:35 PM 46.4 °F 39.8 °F 46.4 °F 100% 29.90 in 6.0 mi WNW 16.1 mph 23.0 mph N/A   Overcast
7:55 PM 48.2 °F - 46.4 °F 93% 29.90 in 10.0 mi NW 17.3 mph - N/A   Overcast
8:15 PM 48.2 °F - 46.4 °F 93% 29.90 in 10.0 mi NW 12.7 mph 19.6 mph N/A   Overcast
8:35 PM 48.2 °F - 46.4 °F 93% 29.91 in 10.0 mi NW 15.0 mph - N/A   Overcast
8:55 PM 48.2 °F - 46.4 °F 93% 29.91 in 10.0 mi NW 13.8 mph - N/A   Overcast
9:15 PM 48.2 °F - 46.4 °F 93% 29.92 in 10.0 mi NW 12.7 mph 20.7 mph N/A   Overcast
9:35 PM 48.2 °F - 46.4 °F 93% 29.93 in 10.0 mi NW 13.8 mph 19.6 mph N/A   Overcast
9:55 PM 48.2 °F - 46.4 °F 93% 29.93 in 10.0 mi NW 15.0 mph 21.9 mph N/A   Overcast
10:15 PM 48.2 °F - 46.4 °F 93% 29.94 in 10.0 mi NW 19.6 mph 25.3 mph N/A   Overcast
10:35 PM 48.2 °F - 46.4 °F 93% 29.95 in 10.0 mi NW 15.0 mph - N/A   Overcast
10:55 PM 48.2 °F - 46.4 °F 93% 29.95 in 10.0 mi NW 9.2 mph 16.1 mph N/A   Scattered Clouds
11:15 PM 46.4 °F 41.5 °F 44.6 °F 93% 29.95 in 10.0 mi WNW 10.4 mph - N/A   Clear
11:35 PM 46.4 °F 42.4 °F 44.6 °F 93% 29.95 in 10.0 mi WNW 8.1 mph - N/A   Clear
11:55 PM 44.6 °F 40.2 °F 44.6 °F 100% 29.95 in 10.0 mi WNW 8.1 mph - N/A   Clear